Flight Track Log - Related Links

Times and Time Zones

All times are in EDT time to prevent confusion due to time zone crossing. See the N64859 flight status page for this flight to view local times or setup timezone preferences in your user account.

Time Position Orientation Groundspeed Altitude Reporting Facility
EDT Latitude Longitude Course Direction KTS MPH feet Rate Location/Type
Fri 12:37:36 PM 28.8333 -80.9000 166° South 98 113 2,500  Level Orlando TRACON
Fri 12:38:36 PM 28.8000 -80.9000 180° South 96 110 2,500 50 Level Orlando TRACON
Fri 12:39:36 PM 28.7833 -80.8833 139° Southeast 93 107 2,600  Climbing Orlando TRACON
Fri 12:40:36 PM 28.7500 -80.8833 180° South 99 114 2,500  Descending Orlando TRACON
Fri 12:41:25 PM 28.7333 -80.8833 180° South 98 113 2,600 52 Climbing Orlando TRACON
Fri 12:42:00 PM 28.4678 -80.7921 166° South  Level Estimated
Fri 12:42:31 PM 28.7000 -80.8667 156° South 98 113 2,600  Level Orlando TRACON
Fri 12:43:25 PM 28.6667 -80.8667 180° South 96 110 2,600  Level Orlando TRACON
Fri 12:44:25 PM 28.6500 -80.8667 180° South 105 121 2,600  Level Orlando TRACON
Fri 12:45:31 PM 28.6167 -80.8500 156° South 97 112 2,600  Level Orlando TRACON
Fri 12:46:37 PM 28.5833 -80.8500 180° South 101 116 2,600  Level Orlando TRACON
Fri 12:47:31 PM 28.5500 -80.8500 180° South 101 116 2,600  Level Orlando TRACON
Fri 12:48:31 PM 28.5333 -80.8500 180° South 105 121 2,600  Level Orlando TRACON
Fri 12:49:31 PM 28.5000 -80.8333 156° South 99 114 2,600  Level Orlando TRACON
Fri 12:50:26 PM 28.4833 -80.8333 180° South 98 113 2,600 47 Level Orlando TRACON
Fri 12:51:38 PM 28.4500 -80.8167 156° South 102 117 2,700 50 Climbing Orlando TRACON
Fri 12:52:26 PM 28.4333 -80.8167 180° South 111 128 2,700 -105 Level Orlando TRACON
Fri 12:53:32 PM 28.4000 -80.7833 139° Southeast 102 117 2,500 -95 Descending Orlando TRACON
Fri 12:54:32 PM 28.3833 -80.7667 139° Southeast 108 124 2,500 -150 Level Orlando TRACON
Fri 12:55:32 PM 28.3667 -80.7333 120° Southeast 104 120 2,200 -263 Descending Orlando TRACON
Fri 12:56:26 PM 28.3500 -80.7167 139° Southeast 102 117 2,000 -53 Descending Orlando TRACON
Fri 12:57:26 PM 28.3333 -80.7000 139° Southeast 98 113 2,100 300 Climbing Orlando TRACON
Fri 12:58:26 PM 28.3167 -80.6667 120° Southeast 97 112 2,600 450 Climbing Orlando TRACON
Fri 12:59:26 PM 28.3000 -80.6500 139° Southeast 99 114 3,000 500 Climbing Orlando TRACON
Fri 01:00:26 PM 28.2833 -80.6333 139° Southeast 94 108 3,600 496 Climbing Orlando TRACON
Fri 01:01:27 PM 28.2500 -80.6167 156° South 99 114 4,000 397 Climbing Orlando TRACON
Fri 01:02:27 PM 28.2333 -80.6000 139° Southeast 91 105 4,400 421 Climbing Orlando TRACON
Fri 01:03:21 PM 28.2167 -80.6000 180° South 85 98 4,800 368 Climbing Orlando TRACON
Fri 01:04:21 PM 28.1833 -80.6000 180° South 85 98 5,100 256 Climbing Orlando TRACON
Fri 01:05:18 PM 28.1625 -80.5894 156° South 94 108 5,300 -821 Climbing Miami Center
Fri 01:06:18 PM 28.1375 -80.5861 173° South 94 108 3,500 -900 Descending Miami Center
Fri 01:07:18 PM 28.1106 -80.5783 166° South 94 108 3,500  Level Miami Center
Fri 01:08:18 PM 28.0856 -80.5728 169° South 94 108 3,500  Level Miami Center
Fri 01:10:18 PM 28.0533 -80.5317 132° Southeast 94 108 3,500  Level Miami Center
Fri 01:11:18 PM 28.0436 -80.5078 115° Southeast 123 142 3,500  Level Miami Center
Fri 01:12:18 PM 28.0192 -80.4789 134° Southeast 116 133 3,500  Level Miami Center
Fri 01:13:18 PM 28.0008 -80.4569 133° Southeast 116 133 3,500  Level Miami Center
Fri 01:14:18 PM 27.9806 -80.4328 134° Southeast 116 133 3,500  Level Miami Center
Fri 01:15:18 PM 27.9739 -80.4492 245° Southwest 116 133 3,500  Level Miami Center
Fri 01:16:18 PM 27.9656 -80.4489 178° South 116 133 3,500 1,150 Level Miami Center
Fri 01:17:18 PM 27.9022 -80.4022 147° Southeast 100 115 5,800 1,100 Climbing Miami Center
Fri 01:18:18 PM 27.8733 -80.3850 152° Southeast 107 123 5,700 -100 Descending Miami Center
Fri 01:19:18 PM 27.8464 -80.3725 158° South 112 129 5,600 -1,100 Descending Miami Center
Fri 01:20:18 PM 27.8156 -80.3597 160° South 112 129 3,500 -1,050 Descending Miami Center
Fri 01:21:18 PM 27.7844 -80.3469 160° South 112 129 3,500  Level Miami Center
Fri 01:22:18 PM 27.7658 -80.3394 160° South 112 129 3,500  Level Miami Center
Fri 01:24:18 PM 27.7292 -80.3078 143° Southeast 112 129 3,500  Level Miami Center
Fri 01:25:18 PM 27.7061 -80.3025 169° South 112 129 3,500  Level Miami Center
Fri 01:26:18 PM 27.6856 -80.2969 167° South 112 129 3,500 300 Level Miami Center
Fri 01:27:18 PM 27.6517 -80.3125 202° Southwest 102 117 4,100  Climbing Miami Center
Fri 01:28:18 PM 27.6267 -80.3069 169° South 102 117 3,500 -300 Descending Miami Center
Fri 01:29:18 PM 27.5997 -80.2992 166° South 102 117 3,500 -150 Level Miami Center
Fri 01:30:18 PM 27.5753 -80.2772 141° Southeast 105 121 3,200 -150 Descending Miami Center
Fri 01:31:18 PM 27.5481 -80.2764 178° South 105 121 3,200 -350 Level Miami Center
Fri 01:32:18 PM 27.5167 -80.2850 194° South 100 115 2,500 -350 Descending Miami Center
Fri 01:33:18 PM 27.4917 -80.2842 178° South 100 115 2,500 -250 Level Miami Center
Fri 01:34:18 PM 27.4625 -80.2764 167° South 102 117 2,000 -250 Descending Miami Center
Fri 01:35:18 PM 27.4419 -80.2711 167° South 102 117 2,000  Level Miami Center
Fri 01:36:18 PM 27.4192 -80.2633 163° South 102 117 2,000  Level Miami Center
Fri 01:37:18 PM 27.3900 -80.2531 163° South 95 109 2,000  Level Miami Center
Fri 01:38:18 PM 27.3714 -80.2433 155° Southeast 84 97 2,000  Level Miami Center
Fri 01:39:18 PM 27.3486 -80.2378 168° South 84 97 2,000  Level Miami Center
Fri 01:40:18 PM 27.3281 -80.2281 157° South 84 97 2,000  Level Miami Center
Fri 01:41:18 PM 27.3072 -80.2181 157° South 89 102 2,000  Level Miami Center
Fri 01:42:18 PM 27.2783 -80.2031 155° Southeast 89 102 2,000  Level Miami Center
Fri 01:43:18 PM 27.2578 -80.1933 157° South 89 102 2,000  Level Miami Center
Fri 01:44:18 PM 27.2308 -80.1831 161° South 95 109 2,000  Level Miami Center
Fri 01:45:18 PM 27.2019 -80.1753 167° South 100 115 2,000  Level Miami Center
Fri 01:46:18 PM 27.1769 -80.1675 165° South 100 115 2,000  Level Miami Center
Fri 01:47:18 PM 27.1500 -80.1619 170° South 100 115 2,000  Level Miami Center
Fri 01:48:18 PM 27.1250 -80.1544 165° South 100 115 2,000  Level Miami Center
Fri 01:50:00 PM 27.0817 -80.1552 181° South  Level FlightAware Approximate
Fri 01:57:00 PM 26.9036 -80.1581 181° South  Level FlightAware Approximate
Fri 01:58:00 PM 26.8782 -80.1585 181° South  Level FlightAware Approximate
Fri 01:59:00 PM 26.8527 -80.1590 181° South  Level FlightAware Approximate
Fri 02:00:00 PM 26.8272 -80.1594 181° South  Level FlightAware Approximate
Fri 02:01:00 PM 26.8018 -80.1598 181° South  Level FlightAware Approximate
Fri 02:02:00 PM 26.7764 -80.1602 181° South  Level FlightAware Approximate
Fri 02:03:00 PM 26.7509 -80.1606 181° South  Level FlightAware Approximate
Fri 02:04:00 PM 26.7255 -80.1610 181° South  Level FlightAware Approximate
Fri 02:05:00 PM 26.7000 -80.1615 181° South  Level FlightAware Approximate
Fri 02:06:00 PM 26.6745 -80.1619 181° South  Level FlightAware Approximate
Fri 02:07:00 PM 26.6491 -80.1623 181° South  Level FlightAware Approximate
Fri 02:08:00 PM 26.6236 -80.1627 181° South  Level FlightAware Approximate
Fri 02:09:00 PM 26.5982 -80.1631 181° South  Level FlightAware Approximate
Fri 02:10:00 PM 26.5728 -80.1636 181° South  Level FlightAware Approximate
Fri 02:11:00 PM 26.5473 -80.1640 181° South  Level FlightAware Approximate
Fri 02:12:00 PM 26.5219 -80.1644 181° South  Level FlightAware Approximate
Fri 02:13:00 PM 26.4964 -80.1648 181° South  Level FlightAware Approximate
Fri 02:14:00 PM 26.4709 -80.1652 181° South  Level FlightAware Approximate
Fri 02:15:00 PM 26.4455 -80.1656 181° South  Level FlightAware Approximate
Fri 02:16:00 PM 26.4200 -80.1661 181° South  Level FlightAware Approximate
Fri 02:17:00 PM 26.3946 -80.1665 181° South  Level FlightAware Approximate
Fri 02:18:00 PM 26.3692 -80.1667 180° South  Level FlightAware Approximate
Fri 02:19:00 PM 26.3437 -80.1667 180° South  Level FlightAware Approximate
Fri 02:20:00 PM 26.3183 -80.1667 180° South  Level FlightAware Approximate
Fri 02:21:00 PM 26.2928 -80.1667 180° South  Level FlightAware Approximate
Fri 02:22:00 PM 26.2674 -80.1667 180° South  Level FlightAware Approximate
Fri 02:23:00 PM 26.2419 -80.1667 180° South  Level FlightAware Approximate
Fri 02:24:00 PM 26.2165 -80.1667 180° South  Level FlightAware Approximate
Fri 02:25:00 PM 26.1910 -80.1667 180° South  Level FlightAware Approximate
Fri 02:26:00 PM 26.1833 -80.1667 180° South  Level FlightAware Approximate
Fri 02:27:00 PM 26.1973 -80.1707 180° South  Level Estimated
Fri 02:28:00 PM 26.1973 -80.1707 180° South  Level Estimated
Fri 02:29:00 PM 26.1973 -80.1707 180° South  Level Estimated
Fri 02:30:00 PM 26.1973 -80.1707 180° South  Level Estimated
Fri 02:31:00 PM 26.1973 -80.1707 180° South  Level Estimated
Fri 02:32:00 PM 26.1973 -80.1707 180° South  Level Estimated
Fri 02:33:00 PM 26.1973 -80.1707 180° South  Level Estimated
Fri 02:34:00 PM 26.1973 -80.1707 180° South  Level Estimated
Fri 02:35:00 PM 26.1973 -80.1707 180° South  Level Estimated
Fri 02:36:00 PM 26.1973 -80.1707 180° South  Level Estimated
Fri 02:37:00 PM 26.1973 -80.1707 180° South  Level Estimated
Fri 02:38:00 PM 26.1973 -80.1707 180° South  Level Estimated
Fri 02:39:00 PM 26.1973 -80.1707 180° South  Level Estimated
Fri 02:40:00 PM 26.1973 -80.1707 180° South  Level Estimated
Fri 02:41:00 PM 26.1973 -80.1707 180° South  Level Estimated
Fri 02:42:00 PM 26.1973 -80.1707 180° South  Level Estimated

Login

Don't have an account? Register now (free) for customized features, flight alerts, and more!